createdAt,value
2017-09-15T00:02:00.293Z,7.20
2017-09-15T00:04:26.758Z,7.30
2017-09-15T00:06:53.390Z,7.30
2017-09-15T00:09:20.535Z,7.40
2017-09-15T00:11:47.086Z,7.40
2017-09-15T00:14:14.445Z,7.50
2017-09-15T00:16:40.964Z,7.40
2017-09-15T00:19:08.143Z,7.40
2017-09-15T00:21:35.400Z,7.30
2017-09-15T00:24:01.927Z,7.30
2017-09-15T00:26:28.584Z,7.40
2017-09-15T00:28:55.228Z,7.40
2017-09-15T00:31:22.896Z,7.40
2017-09-15T00:33:50.255Z,7.50
2017-09-15T00:36:17.819Z,7.50
2017-09-15T00:38:46.406Z,7.50
2017-09-15T00:41:13.870Z,7.50
2017-09-15T00:43:41.228Z,7.50
2017-09-15T00:46:08.385Z,7.50
2017-09-15T00:48:35.027Z,7.50
2017-09-15T00:51:01.675Z,7.50
2017-09-15T00:53:29.132Z,7.40
2017-09-15T00:55:57.107Z,7.50
2017-09-15T00:58:23.646Z,7.50
2017-09-15T01:00:51.111Z,7.50
2017-09-15T01:03:18.981Z,7.40
2017-09-15T01:05:46.528Z,7.40
2017-09-15T01:08:14.006Z,7.30
2017-09-15T01:10:41.698Z,7.30
2017-09-15T01:13:09.032Z,7.30
2017-09-15T01:15:35.574Z,7.20
2017-09-15T01:18:02.100Z,7.20
2017-09-15T01:20:28.651Z,7.10
2017-09-15T01:22:55.300Z,7.10
2017-09-15T01:25:21.942Z,7.10
2017-09-15T01:27:48.479Z,7.10
2017-09-15T01:30:15.025Z,7.00
2017-09-15T01:32:42.589Z,7.00
2017-09-15T01:35:09.126Z,7.00
2017-09-15T01:37:36.593Z,6.90
2017-09-15T01:40:03.816Z,6.90
2017-09-15T01:42:31.419Z,6.90
2017-09-15T01:44:57.956Z,6.90
2017-09-15T01:47:24.499Z,6.90
2017-09-15T01:49:51.035Z,6.90
2017-09-15T01:52:18.507Z,7.00
2017-09-15T01:54:45.655Z,7.00
2017-09-15T01:57:12.299Z,7.00
2017-09-15T01:59:38.840Z,7.00
2017-09-15T02:02:05.379Z,6.90
2017-09-15T02:04:32.740Z,7.00
2017-09-15T02:06:59.383Z,7.00
2017-09-15T02:09:26.931Z,7.00
2017-09-15T02:11:53.488Z,7.00
2017-09-15T02:14:20.952Z,7.00
2017-09-15T02:16:47.488Z,7.00
2017-09-15T02:19:14.035Z,7.00
2017-09-15T02:21:41.187Z,7.00
2017-09-15T02:24:07.842Z,7.00
2017-09-15T02:26:34.580Z,7.00
2017-09-15T02:29:01.323Z,7.00
2017-09-15T02:31:27.864Z,7.00
2017-09-15T02:33:55.532Z,7.00
2017-09-15T02:36:23.204Z,6.90
2017-09-15T02:38:50.748Z,6.90
2017-09-15T02:41:18.224Z,6.90
2017-09-15T02:43:45.893Z,6.90
2017-09-15T02:46:14.275Z,6.90
2017-09-15T02:48:41.629Z,6.90
2017-09-15T02:51:08.276Z,6.90
2017-09-15T02:53:34.820Z,6.90
2017-09-15T02:56:02.880Z,6.90
2017-09-15T02:58:29.437Z,6.90
2017-09-15T03:00:56.076Z,6.80
2017-09-15T03:03:22.620Z,6.90
2017-09-15T03:05:49.981Z,6.80
2017-09-15T03:08:16.520Z,6.80
2017-09-15T03:10:43.072Z,6.80
2017-09-15T03:13:09.696Z,6.80
2017-09-15T03:15:37.277Z,6.80
2017-09-15T03:18:04.631Z,6.80
2017-09-15T03:20:32.808Z,6.70
2017-09-15T03:22:59.351Z,6.70
2017-09-15T03:25:26.503Z,6.70
2017-09-15T03:27:53.143Z,6.70
2017-09-15T03:30:19.689Z,6.70
2017-09-15T03:32:47.150Z,6.70
2017-09-15T03:35:14.408Z,6.60
2017-09-15T03:37:41.781Z,6.60
2017-09-15T03:40:08.910Z,6.70
2017-09-15T03:42:36.283Z,6.70
2017-09-15T03:45:04.157Z,6.70
2017-09-15T03:47:31.723Z,6.70
2017-09-15T03:49:58.260Z,6.70
2017-09-15T03:52:25.414Z,6.60
2017-09-15T03:54:53.799Z,6.60
2017-09-15T03:57:20.324Z,6.60
2017-09-15T03:59:47.495Z,6.60
2017-09-15T04:02:14.855Z,6.60
2017-09-15T04:04:42.214Z,6.60
2017-09-15T04:07:09.060Z,6.50
2017-09-15T04:09:35.604Z,6.50
2017-09-15T04:12:02.246Z,6.50
2017-09-15T04:14:28.888Z,6.50
2017-09-15T04:16:56.142Z,6.50
2017-09-15T04:19:23.302Z,6.50
2017-09-15T04:21:50.760Z,6.50
2017-09-15T04:24:17.305Z,6.50
2017-09-15T04:26:43.848Z,6.50
2017-09-15T04:29:11.625Z,6.50
2017-09-15T04:31:38.974Z,6.50
2017-09-15T04:34:06.542Z,6.50
2017-09-15T04:36:34.308Z,6.50
2017-09-15T04:39:01.772Z,6.50
2017-09-15T04:41:29.437Z,6.50
2017-09-15T04:43:56.796Z,6.50
2017-09-15T04:46:24.156Z,6.50
2017-09-15T04:48:50.800Z,6.50
2017-09-15T04:51:17.443Z,6.50
2017-09-15T04:53:44.085Z,6.50
2017-09-15T04:56:10.631Z,6.50
2017-09-15T04:58:37.680Z,6.50
2017-09-15T05:01:05.046Z,6.60
2017-09-15T05:03:32.299Z,6.50
2017-09-15T05:06:00.112Z,6.60
2017-09-15T05:08:26.713Z,6.60
2017-09-15T05:10:53.257Z,6.60
2017-09-15T05:13:19.791Z,6.60
2017-09-15T05:15:46.432Z,6.60
2017-09-15T05:18:13.080Z,6.70
2017-09-15T05:20:39.616Z,6.70
2017-09-15T05:23:06.251Z,6.70
2017-09-15T05:25:34.216Z,6.70
2017-09-15T05:28:01.804Z,6.80
2017-09-15T05:30:28.342Z,6.90
2017-09-15T05:32:55.810Z,6.90
2017-09-15T05:35:23.677Z,7.00
2017-09-15T05:37:50.832Z,7.00
2017-09-15T05:40:18.192Z,7.00
2017-09-15T05:42:45.451Z,7.10
2017-09-15T05:45:11.989Z,7.20
2017-09-15T05:47:39.824Z,7.20
2017-09-15T05:50:08.379Z,7.30
2017-09-15T05:52:35.511Z,7.30
2017-09-15T05:55:02.232Z,7.30
2017-09-15T05:57:30.427Z,7.40
2017-09-15T05:59:57.989Z,7.40
2017-09-15T06:02:26.076Z,7.50
2017-09-15T06:04:53.879Z,7.60
2017-09-15T06:07:20.579Z,7.60
2017-09-15T06:09:48.755Z,7.70
2017-09-15T06:12:15.296Z,7.70
2017-09-15T06:14:42.456Z,7.80
2017-09-15T06:17:10.019Z,7.80
2017-09-15T06:19:36.560Z,7.90
2017-09-15T06:22:03.819Z,7.90
2017-09-15T06:24:31.076Z,8.00
2017-09-15T06:26:59.700Z,8.10
2017-09-15T06:29:26.292Z,8.20
2017-09-15T06:31:54.156Z,8.20
2017-09-15T06:34:21.641Z,8.30
2017-09-15T06:36:49.308Z,8.40
2017-09-15T06:39:16.872Z,8.40
2017-09-15T06:41:44.399Z,8.50
2017-09-15T06:44:12.612Z,8.60
2017-09-15T06:46:40.894Z,8.60
2017-09-15T06:49:07.436Z,8.70
2017-09-15T06:51:34.075Z,8.80
2017-09-15T06:54:02.156Z,8.90
2017-09-15T06:56:30.174Z,9.00
2017-09-15T06:58:56.670Z,9.00
2017-09-15T07:01:24.504Z,9.10
2017-09-15T07:03:51.805Z,9.30
2017-09-15T07:06:18.341Z,9.30
2017-09-15T07:08:45.598Z,9.30
2017-09-15T07:11:12.243Z,9.40
2017-09-15T07:13:40.364Z,9.40
2017-09-15T07:16:07.678Z,9.50
2017-09-15T07:18:35.140Z,9.60
2017-09-15T07:21:01.680Z,9.70
2017-09-15T07:23:28.836Z,9.80
2017-09-15T07:25:55.376Z,9.80
2017-09-15T07:28:22.788Z,9.90
2017-09-15T07:30:50.198Z,10.10
2017-09-15T07:33:17.360Z,10.10
2017-09-15T07:38:37.764Z,10.30
2017-09-15T07:41:04.950Z,10.30
2017-09-15T07:46:27.571Z,10.50
2017-09-15T07:48:54.112Z,10.50
2017-09-15T07:51:21.574Z,10.60
2017-09-15T07:53:49.036Z,10.70
2017-09-15T07:56:15.576Z,10.80
2017-09-15T07:58:42.221Z,10.90
2017-09-15T08:01:08.757Z,11.00
2017-09-15T08:03:35.293Z,11.00
2017-09-15T08:06:02.050Z,11.10
2017-09-15T08:08:30.312Z,11.20
2017-09-15T08:10:57.800Z,11.30
2017-09-15T08:13:24.947Z,11.40
2017-09-15T08:15:51.573Z,11.40
2017-09-15T08:18:18.131Z,11.40
2017-09-15T08:20:45.388Z,11.50
2017-09-15T08:23:12.644Z,11.60
2017-09-15T08:25:39.800Z,11.60
2017-09-15T08:28:06.852Z,11.70
2017-09-15T08:30:33.496Z,11.80
2017-09-15T08:33:00.756Z,11.90
2017-09-15T08:35:28.017Z,12.00
2017-09-15T08:37:55.472Z,12.10
2017-09-15T08:40:23.149Z,12.10
2017-09-15T08:42:50.707Z,12.20
2017-09-15T08:45:17.486Z,12.30
2017-09-15T08:47:44.100Z,12.40
2017-09-15T08:50:10.807Z,12.40
2017-09-15T08:52:39.259Z,12.50
2017-09-15T08:55:05.452Z,12.50
2017-09-15T08:57:32.944Z,12.60
2017-09-15T08:59:59.156Z,12.70
2017-09-15T09:02:25.364Z,12.80
2017-09-15T09:04:52.387Z,13.00
2017-09-15T09:07:19.421Z,13.00
2017-09-15T09:09:45.628Z,13.20
2017-09-15T09:12:11.840Z,13.20
2017-09-15T09:14:38.155Z,13.30
2017-09-15T09:17:06.399Z,13.40
2017-09-15T09:19:32.616Z,13.30
2017-09-15T09:21:58.808Z,13.60
2017-09-15T09:24:25.788Z,13.70
2017-09-15T09:26:52.035Z,13.70
2017-09-15T09:29:18.384Z,13.80
2017-09-15T09:31:45.568Z,13.90
2017-09-15T09:34:11.787Z,14.00
2017-09-15T09:36:39.655Z,14.10
2017-09-15T09:39:06.295Z,14.10
2017-09-15T09:41:33.973Z,14.20
2017-09-15T09:44:00.197Z,14.30
2017-09-15T09:46:26.957Z,14.20
2017-09-15T09:48:53.640Z,14.30
2017-09-15T09:51:20.668Z,14.40
2017-09-15T09:53:47.384Z,14.50
2017-09-15T09:56:13.624Z,14.60
2017-09-15T09:58:40.430Z,14.70
2017-09-15T10:01:07.070Z,14.70
2017-09-15T10:03:33.338Z,14.80
2017-09-15T10:06:00.099Z,14.90
2017-09-15T10:08:26.300Z,14.90
2017-09-15T10:10:53.884Z,14.90
2017-09-15T10:13:20.072Z,15.00
2017-09-15T10:15:46.306Z,15.10
2017-09-15T10:18:12.568Z,15.20
2017-09-15T10:20:38.782Z,15.10
2017-09-15T10:23:05.088Z,15.20
2017-09-15T10:25:31.315Z,15.30
2017-09-15T10:27:57.531Z,15.30
2017-09-15T10:30:24.351Z,15.30
2017-09-15T10:32:50.566Z,15.30
2017-09-15T10:35:16.756Z,15.30
2017-09-15T10:37:44.332Z,15.30
2017-09-15T10:40:11.660Z,15.30
2017-09-15T10:42:38.491Z,15.40
2017-09-15T10:45:05.335Z,15.40
2017-09-15T10:47:32.821Z,15.40
2017-09-15T10:49:59.042Z,15.50
2017-09-15T10:52:25.240Z,15.70
2017-09-15T10:54:52.197Z,15.80
2017-09-15T10:57:18.547Z,15.80
2017-09-15T10:59:52.500Z,15.90
2017-09-15T11:02:18.722Z,16.00
2017-09-15T11:04:44.948Z,16.10
2017-09-15T11:07:11.186Z,16.20
2017-09-15T11:09:37.518Z,16.30
2017-09-15T11:12:05.298Z,16.40
2017-09-15T11:14:31.520Z,16.40
2017-09-15T11:16:57.962Z,16.40
2017-09-15T11:19:24.203Z,16.40
2017-09-15T11:21:50.533Z,16.40
2017-09-15T11:24:16.856Z,16.40
2017-09-15T11:26:44.352Z,16.40
2017-09-15T11:29:11.098Z,16.50
2017-09-15T11:31:37.316Z,16.60
2017-09-15T11:34:03.974Z,16.80
2017-09-15T11:36:31.492Z,16.80
2017-09-15T11:39:04.763Z,16.90
2017-09-15T11:41:32.595Z,16.90
2017-09-15T11:43:59.947Z,16.90
2017-09-15T11:46:26.561Z,17.00
2017-09-15T11:48:53.435Z,17.20
2017-09-15T11:51:19.647Z,17.20
2017-09-15T11:53:45.852Z,17.20
2017-09-15T11:56:12.818Z,17.10
2017-09-15T11:58:39.515Z,17.20
2017-09-15T12:01:05.739Z,17.30
2017-09-15T12:03:32.467Z,17.10
2017-09-15T12:05:58.842Z,17.20
2017-09-15T12:08:25.422Z,17.10
2017-09-15T12:10:51.653Z,17.20
2017-09-15T12:13:17.855Z,17.40
2017-09-15T12:15:44.781Z,17.70
2017-09-15T12:18:11.386Z,17.70
2017-09-15T12:20:38.250Z,17.70
2017-09-15T12:23:04.881Z,17.90
2017-09-15T12:25:31.456Z,18.00
2017-09-15T12:28:01.583Z,17.90
2017-09-15T12:30:27.792Z,18.00
2017-09-15T12:32:54.014Z,18.20
2017-09-15T12:35:20.255Z,18.40
2017-09-15T12:37:47.151Z,18.40
2017-09-15T12:40:13.883Z,18.40
2017-09-15T12:42:40.509Z,18.40
2017-09-15T12:45:06.723Z,18.30
2017-09-15T12:47:32.929Z,18.40
2017-09-15T12:49:59.934Z,18.30
2017-09-15T12:52:26.671Z,18.30
2017-09-15T12:54:52.863Z,18.50
2017-09-15T12:57:19.796Z,18.60
2017-09-15T12:59:46.764Z,18.60
2017-09-15T13:02:13.704Z,18.80
2017-09-15T13:04:40.788Z,19.00
2017-09-15T13:07:08.072Z,19.00
2017-09-15T13:09:34.270Z,19.20
2017-09-15T13:12:00.544Z,19.30
2017-09-15T13:14:26.772Z,19.40
2017-09-15T13:16:53.516Z,19.60
2017-09-15T13:19:21.051Z,19.40
2017-09-15T13:21:48.198Z,19.60
2017-09-15T13:24:14.403Z,19.50
2017-09-15T13:26:41.123Z,19.30
2017-09-15T13:29:07.340Z,19.40
2017-09-15T13:31:33.556Z,19.30
2017-09-15T13:33:59.839Z,19.40
2017-09-15T13:36:26.049Z,19.80
2017-09-15T13:38:53.206Z,19.80
2017-09-15T13:41:19.928Z,20.00
2017-09-15T13:43:46.136Z,19.90
2017-09-15T13:46:13.104Z,19.70
2017-09-15T13:48:39.343Z,19.70
2017-09-15T13:51:05.566Z,19.80
2017-09-15T13:53:31.896Z,19.90
2017-09-15T13:55:58.185Z,19.80
2017-09-15T13:58:24.930Z,19.70
2017-09-15T14:00:51.640Z,19.60
2017-09-15T14:03:17.843Z,19.50
2017-09-15T14:05:44.784Z,19.60
2017-09-15T14:08:13.029Z,19.20
2017-09-15T14:10:39.239Z,19.20
2017-09-15T14:13:05.443Z,19.10
2017-09-15T14:15:32.864Z,18.90
2017-09-15T14:17:59.911Z,19.00
2017-09-15T14:20:26.988Z,19.00
2017-09-15T14:22:53.196Z,18.60
2017-09-15T14:25:19.411Z,18.40
2017-09-15T14:27:45.654Z,19.10
2017-09-15T14:30:11.872Z,19.60
2017-09-15T14:32:38.174Z,20.20
2017-09-15T14:35:06.118Z,20.80
2017-09-15T14:37:32.867Z,20.80
2017-09-15T14:40:00.628Z,20.80
2017-09-15T14:42:27.235Z,21.50
2017-09-15T14:44:53.424Z,21.60
2017-09-15T14:47:20.412Z,21.00
2017-09-15T14:49:46.643Z,21.00
2017-09-15T14:52:12.854Z,20.30
2017-09-15T14:54:39.902Z,19.60
2017-09-15T14:57:07.563Z,19.20
2017-09-15T14:59:34.523Z,18.90
2017-09-15T15:02:01.544Z,18.60
2017-09-15T15:04:27.786Z,18.50
2017-09-15T15:06:55.243Z,18.30
2017-09-15T15:09:21.440Z,18.10
2017-09-15T15:11:48.326Z,17.70
2017-09-15T15:14:14.532Z,17.60
2017-09-15T15:16:40.742Z,17.40
2017-09-15T15:19:08.523Z,17.30
2017-09-15T15:21:34.720Z,17.20
2017-09-15T15:24:01.044Z,17.00
2017-09-15T15:26:27.264Z,16.90
2017-09-15T15:28:53.481Z,16.90
2017-09-15T15:31:19.778Z,16.90
2017-09-15T15:33:48.311Z,16.70
2017-09-15T15:36:14.515Z,16.60
2017-09-15T15:38:40.713Z,16.60
2017-09-15T15:41:07.512Z,16.50
2017-09-15T15:43:34.060Z,16.30
2017-09-15T15:46:00.311Z,16.30
2017-09-15T15:48:26.523Z,16.10
2017-09-15T15:50:54.312Z,16.10
2017-09-15T15:53:20.516Z,16.00
2017-09-15T15:55:46.760Z,16.00
2017-09-15T15:58:12.995Z,15.90
2017-09-15T16:00:39.248Z,15.80
2017-09-15T16:03:05.564Z,15.80
2017-09-15T16:05:31.844Z,15.70
2017-09-15T16:07:59.605Z,15.70
2017-09-15T16:10:26.208Z,15.70
2017-09-15T16:12:52.444Z,15.70
2017-09-15T16:15:20.308Z,15.60
2017-09-15T16:17:46.533Z,15.60
2017-09-15T16:20:12.728Z,15.60
2017-09-15T16:22:38.958Z,15.50
2017-09-15T16:25:05.159Z,15.40
2017-09-15T16:27:31.608Z,15.40
2017-09-15T16:29:58.905Z,15.40
2017-09-15T16:32:26.639Z,15.40
2017-09-15T16:34:52.852Z,15.40
2017-09-15T16:37:19.808Z,15.40
2017-09-15T16:39:52.911Z,15.30
2017-09-15T16:42:25.998Z,15.30
2017-09-15T16:44:58.283Z,15.20
2017-09-15T16:47:31.725Z,15.20
2017-09-15T16:49:57.865Z,15.20
2017-09-15T16:52:24.059Z,15.20
2017-09-15T16:54:50.280Z,15.10
2017-09-15T16:57:16.900Z,15.10
2017-09-15T16:59:43.216Z,15.00
2017-09-15T17:02:09.447Z,15.00
2017-09-15T17:04:36.129Z,15.00
2017-09-15T17:07:03.260Z,15.00
2017-09-15T17:09:29.456Z,14.90
2017-09-15T17:11:56.457Z,14.80
2017-09-15T17:14:23.782Z,14.80
2017-09-15T17:16:49.984Z,14.70
2017-09-15T17:19:16.180Z,14.70
2017-09-15T17:21:43.339Z,14.70
2017-09-15T17:24:09.563Z,14.70
2017-09-15T17:26:35.780Z,14.70
2017-09-15T17:29:02.875Z,14.70
2017-09-15T17:31:29.078Z,14.70
2017-09-15T17:33:56.310Z,14.60
2017-09-15T17:36:22.537Z,14.60
2017-09-15T17:38:49.494Z,14.70
2017-09-15T17:41:17.142Z,14.70
2017-09-15T17:43:44.104Z,14.60
2017-09-15T17:46:11.089Z,14.60
2017-09-15T17:48:37.307Z,14.50
2017-09-15T17:51:06.212Z,14.50
2017-09-15T17:53:33.086Z,14.40
2017-09-15T17:56:00.441Z,14.30
2017-09-15T17:58:26.652Z,14.10
2017-09-15T18:00:52.864Z,14.10
2017-09-15T18:03:19.823Z,14.10
2017-09-15T18:05:46.037Z,14.10
2017-09-15T18:08:13.352Z,14.00
2017-09-15T18:10:40.422Z,14.00
2017-09-15T18:13:06.640Z,14.00
2017-09-15T18:15:32.859Z,13.90
2017-09-15T18:17:59.142Z,13.90
2017-09-15T18:20:27.523Z,13.80
2017-09-15T18:22:54.515Z,13.60
2017-09-15T18:25:20.774Z,13.60
2017-09-15T18:27:47.669Z,13.50
2017-09-15T18:30:15.927Z,13.40
2017-09-15T18:32:42.864Z,13.40
2017-09-15T18:35:09.074Z,13.40
2017-09-15T18:37:35.278Z,13.50
2017-09-15T18:40:03.788Z,13.40
2017-09-15T18:42:30.558Z,13.40
2017-09-15T18:44:57.197Z,13.40
2017-09-15T18:47:23.768Z,13.30
2017-09-15T18:49:50.731Z,13.30
2017-09-15T18:52:17.695Z,13.20
2017-09-15T18:54:45.110Z,13.20
2017-09-15T18:57:11.325Z,13.20
2017-09-15T18:59:38.907Z,13.20
2017-09-15T19:02:05.477Z,13.00
2017-09-15T19:04:31.837Z,12.90
2017-09-15T19:06:58.851Z,12.80
2017-09-15T19:09:25.454Z,12.80
2017-09-15T19:11:51.678Z,12.80
2017-09-15T19:14:17.888Z,12.80
2017-09-15T19:16:44.917Z,12.70
2017-09-15T19:19:11.217Z,12.70
2017-09-15T19:21:37.536Z,12.70
2017-09-15T19:24:04.131Z,12.70
2017-09-15T19:26:32.635Z,12.60
2017-09-15T19:29:00.875Z,12.60
2017-09-15T19:31:28.709Z,12.50
2017-09-15T19:33:54.976Z,12.60
2017-09-15T19:36:22.345Z,12.60
2017-09-15T19:38:48.573Z,12.60
2017-09-15T19:41:15.886Z,12.60
2017-09-15T19:43:44.332Z,12.60
2017-09-15T19:46:12.075Z,12.60
2017-09-15T19:48:38.326Z,12.60
2017-09-15T19:51:04.572Z,12.60
2017-09-15T19:53:30.918Z,12.60
2017-09-15T19:55:57.261Z,12.50
2017-09-15T19:58:24.902Z,12.40
2017-09-15T20:00:51.115Z,12.30
2017-09-15T20:03:18.293Z,12.40
2017-09-15T20:05:45.918Z,12.40
2017-09-15T20:08:12.898Z,12.40
2017-09-15T20:10:39.484Z,12.50
2017-09-15T20:13:06.413Z,12.50
2017-09-15T20:15:32.648Z,12.40
2017-09-15T20:17:58.869Z,12.30
2017-09-15T20:20:25.110Z,12.40
2017-09-15T20:22:52.132Z,12.30
2017-09-15T20:25:18.351Z,12.30
2017-09-15T20:27:45.058Z,12.20
2017-09-15T20:30:11.603Z,12.10
2017-09-15T20:32:38.912Z,12.00
2017-09-15T20:35:05.190Z,12.00
2017-09-15T20:37:31.427Z,12.10
2017-09-15T20:39:59.342Z,12.00
2017-09-15T20:42:26.186Z,12.00
2017-09-15T20:44:53.153Z,12.00
2017-09-15T20:47:19.490Z,11.90
2017-09-15T20:49:45.715Z,11.90
2017-09-15T20:52:12.022Z,11.90
2017-09-15T20:54:39.593Z,12.00
2017-09-15T20:57:06.391Z,12.00
2017-09-15T20:59:32.606Z,12.00
2017-09-15T21:01:58.812Z,12.00
2017-09-15T21:04:25.689Z,12.00
2017-09-15T21:06:51.889Z,12.00
2017-09-15T21:09:20.811Z,12.00
2017-09-15T21:11:51.063Z,12.00
2017-09-15T21:14:19.277Z,11.90
2017-09-15T21:16:48.925Z,12.00
2017-09-15T21:19:17.124Z,12.00
2017-09-15T21:21:44.075Z,12.00
2017-09-15T21:24:10.294Z,12.00
2017-09-15T21:26:37.191Z,12.00
2017-09-15T21:29:05.545Z,11.90
2017-09-15T21:31:32.343Z,11.90
2017-09-15T21:33:59.213Z,11.80
2017-09-15T21:36:26.448Z,11.90
2017-09-15T21:38:53.737Z,11.90
2017-09-15T21:41:21.610Z,11.80
2017-09-15T21:43:48.712Z,11.80
2017-09-15T21:46:16.239Z,11.80
2017-09-15T21:48:42.443Z,11.80
2017-09-15T21:51:09.314Z,11.90
2017-09-15T21:53:35.547Z,11.90
2017-09-15T21:56:01.788Z,12.00
2017-09-15T21:58:29.771Z,11.90
2017-09-15T22:00:57.220Z,12.00
2017-09-15T22:03:23.458Z,11.90
2017-09-15T22:05:50.067Z,12.00
2017-09-15T22:08:16.649Z,12.00
2017-09-15T22:10:42.867Z,12.00
2017-09-15T22:13:09.519Z,12.00
2017-09-15T22:15:35.723Z,12.00
2017-09-15T22:18:03.220Z,11.90
2017-09-15T22:20:29.439Z,11.80
2017-09-15T22:22:57.334Z,11.90
2017-09-15T22:25:25.096Z,11.90
2017-09-15T22:27:52.667Z,11.90
2017-09-15T22:30:18.950Z,11.90
2017-09-15T22:32:45.230Z,11.90
2017-09-15T22:35:11.876Z,11.90
2017-09-15T22:37:38.096Z,11.90
2017-09-15T22:40:04.935Z,11.90
2017-09-15T22:42:31.757Z,11.80
2017-09-15T22:44:57.991Z,11.90
2017-09-15T22:47:24.203Z,11.80
2017-09-15T22:49:51.294Z,11.80
2017-09-15T22:52:17.643Z,11.80
2017-09-15T22:54:44.061Z,11.70
2017-09-15T22:57:11.148Z,11.70
2017-09-15T22:59:38.095Z,11.70
2017-09-15T23:02:04.311Z,11.70
2017-09-15T23:04:32.189Z,11.70
2017-09-15T23:06:59.056Z,11.70
2017-09-15T23:09:25.269Z,11.70
2017-09-15T23:11:51.488Z,11.70
2017-09-15T23:14:17.723Z,11.70
2017-09-15T23:16:44.248Z,11.70
2017-09-15T23:19:11.196Z,11.80
2017-09-15T23:21:39.320Z,11.80
2017-09-15T23:24:10.606Z,11.80
2017-09-15T23:26:38.244Z,11.90
2017-09-15T23:29:04.456Z,11.80
2017-09-15T23:31:31.904Z,11.80
2017-09-15T23:33:58.142Z,11.80
2017-09-15T23:36:24.340Z,11.90
2017-09-15T23:38:51.284Z,11.80
2017-09-15T23:41:19.216Z,11.80
2017-09-15T23:43:45.419Z,11.80
2017-09-15T23:46:11.639Z,11.80
2017-09-15T23:48:38.644Z,11.80
2017-09-15T23:51:04.861Z,11.80
2017-09-15T23:53:31.176Z,11.80
2017-09-15T23:55:57.380Z,11.80
2017-09-15T23:58:24.018Z,11.80
